ADDS METAR Data INFO
IDs: Format: Raw Decoded Include TAF

Data at: 0803 UTC 24 May 2018

KGTU 240756Z AUTO 18003KT 10SM CLR 22/20 A3007 RMK AO2 SLP177 T02220200
KGTU 240656Z AUTO 00000KT 10SM CLR 22/21 A3009 RMK AO2 SLP184 T02220206
KGTU 240556Z AUTO 00000KT 10SM SCT031 23/21 A3009 RMK AO2 SLP183 T02280206 10289 20228 403170217 51017
KGTU 240456Z AUTO 14003KT 10SM CLR 23/21 A3009 RMK AO2 SLP182 T02330211
KGTU 240356Z AUTO 13004KT 10SM CLR 23/21 A3007 RMK AO2 SLP175 T02330206
KGTU 240256Z 11006KT 10SM CLR 24/19 A3004 RMK AO2 SLP167 T02440194 53016
KGTU 240156Z 12004KT 10SM CLR 26/19 A3002 RMK AO2 SLP157 T02560189
KGTU 240056Z 11005KT 10SM CLR 27/20 A3000 RMK AO2 SLP151 T02720200
KGTU 232356Z 12008KT 10SM CLR 29/21 A3000 RMK AO2 SLP150 T02890206 10317 20289 56009
KGTU 232256Z 13013KT 10SM FEW070 29/21 A3000 RMK AO2 SLP153 T02940206
KGTU 232156Z 13010G14KT 10SM CLR 31/19 A3000 RMK AO2 LTG DSNT E SLP153 T03110189
KGTU 232132Z 14011G16KT 10SM FEW001 31/19 A3001 RMK AO2
KGTU 232056Z 12011G16KT 10SM BKN049 BKN060 29/21 A3002 RMK AO2 SLP159 T02940206 56011
KGTU 231956Z VRB05KT 10SM BKN047 32/19 A3002 RMK AO2 LTG DSNT SE SLP160 T03170194
KGTU 231856Z 17006KT 10SM SCT047 31/19 A3004 RMK AO2 SLP166 T03110194
KGTU 231756Z 17007KT 110V210 10SM FEW044 29/19 A3006 RMK AO2 SLP170 T02940189 10300 20222 58009
KGTU 231656Z 14006KT 10SM BKN034 29/19 A3007 RMK AO2 SLP178 T02940189
KGTU 231616Z 14004KT 10SM FEW022 SCT027 BKN044 27/20 A3009 RMK AO2
KGTU 231556Z 20005KT 10SM BKN024 BKN034 27/21 A3009 RMK AO2 SLP181 T02670206
KGTU 231548Z 19007KT 10SM BKN022 BKN027 BKN035 26/21 A3009 RMK AO2
KGTU 231508Z 17005KT 10SM FEW016 26/21 A3008 RMK AO2
KGTU 231456Z 21008KT 10SM SCT016 BKN026 26/21 A3008 RMK AO2 SLP179 T02560206 51006
KGTU 231452Z 21007KT 10SM SCT016 BKN024 26/21 A3008 RMK AO2
KGTU 231403Z 17003KT 10SM BKN010 24/21 A3008 RMK AO2
KGTU 231356Z 16003KT 10SM BKN008 24/21 A3008 RMK AO2 SLP177 T02390211
KGTU 231256Z 00000KT 10SM BKN008 23/21 A3006 RMK AO2 SLP172 T02280211
KGTU 231234Z 19003KT 10SM BKN008 23/21 A3005 RMK AO2
KGTU 231156Z 20004KT 10SM CLR 22/21 A3003 RMK AO2 SLP163 T02220211 10228 20217 53012
KGTU 231056Z 21006KT 10SM SCT009 23/21 A3002 RMK AO2 SLP159 T02280211
KGTU 231046Z 20005KT 10SM SCT009 23/21 A3002 RMK AO2
KGTU 231039Z 17009KT 10SM BKN009 23/21 A3001 RMK AO2
KGTU 231011Z 17006KT 10SM SCT009 23/21 A3001 RMK AO2
KGTU 230956Z 17008KT 10SM BKN009 23/21 A3000 RMK AO2 SLP152 T02280211
KGTU 230936Z 18007KT 10SM SCT009 22/21 A3000 RMK AO2
KGTU 230856Z 15004KT 10SM CLR 22/21 A3000 RMK AO2 SLP153 T02220206 58008
KGTU 230756Z 17005KT 10SM CLR 23/20 A3000 RMK AO2 SLP154 T02280200
KGTU 230656Z 16004KT 10SM CLR 23/20 A3002 RMK AO2 SLP160 T02280200
KGTU 230556Z 00000KT 10SM CLR 23/20 A3002 RMK AO2 SLP159 T02280200 10300 20228 403170200 50011
KGTU 230456Z 14003KT 10SM CLR 24/20 A3003 RMK AO2 SLP160 T02390200
KGTU 230356Z 15003KT 10SM CLR 24/20 A3001 RMK AO2 SLP155 T02390200
KGTU 230256Z 12005KT 10SM CLR 25/20 A2999 RMK AO2 SLP149 T02500200 53016
KGTU 230156Z 14006KT 10SM CLR 27/19 A2996 RMK AO2 SLP139 T02720194
KGTU 230056Z 14008KT 10SM CLR 29/19 A2995 RMK AO2 SLP133 T02890189
KGTU 222356Z 12008G14KT 10SM CLR 30/18 A2994 RMK AO2 SLP131 T03000178 10317 20289 55006
KGTU 222256Z 11009KT 080V150 10SM FEW050 31/18 A2994 RMK AO2 SLP130 T03060183
KGTU 222156Z 13011KT 10SM SCT047 32/19 A2994 RMK AO2 SLP130 T03170194
KGTU 222056Z 15007G14KT 10SM FEW046 31/19 A2996 RMK AO2 SLP137 T03110194 56022